Time;durP1;ratioP1;P1;durP2;ratioP2;P2;SDS_P1;SDS_P2;PMS_P1;PMS_P2;Temp;Humidity;BMP_temperature;BMP_pressure;BME280_temperature;BME280_humidity;BME280_pressure;Samples;Min_cycle;Max_cycle;Signal;HPM_P1;HPM_P2
2022/05/31 00:00:15;;;;;;;;;;;;;;;16.47;55.46;99847.56;4085139;32;10001130;-93
2022/05/31 00:02:42;;;;;;;;;;;;;;;16.33;56.02;99849.37;4403551;32;20047;-92
2022/05/31 00:05:10;;;;;;;;;;;;;;;16.30;55.73;99846.78;4416492;32;20009;-90
2022/05/31 00:07:37;;;;;;;;;;;;;;;16.62;54.65;99842.16;4412097;32;20016;-92
2022/05/31 00:10:04;;;;;;;;;;;;;;;16.58;54.81;99829.16;4411975;32;19994;-92
2022/05/31 00:12:32;;;;;;;;;;;;;;;16.41;55.23;99831.91;4341889;32;19990;-91
2022/05/31 00:15:18;;;;;;;;;;;;;;;16.35;55.30;99826.75;4406651;32;20077;-92
2022/05/31 00:17:44;;;;;;;;;;;;;;;16.22;55.83;99826.81;4394797;32;20473;-91
2022/05/31 00:20:12;;;;;;;;;;;;;;;16.40;54.99;99827.56;4414713;32;19982;-95
2022/05/31 00:22:39;;;;;;;;;;;;;;;16.32;55.33;99832.00;4405031;32;20043;-90
2022/05/31 00:25:06;;;;;;;;;;;;;;;16.34;55.18;99830.25;4426211;32;20011;-91
2022/05/31 00:27:33;;;;;;;;;;;;;;;16.35;55.32;99831.97;4415918;32;20037;-93
2022/05/31 00:30:00;;;;;;;;;;;;;;;16.32;55.21;99839.81;4415861;32;20339;-93
2022/05/31 00:32:31;;;;;;;;;;;;;;;16.22;55.70;99847.72;4422349;32;20525;-93
2022/05/31 00:34:59;;;;;;;;;;;;;;;16.14;55.69;99852.12;4412611;32;20048;-95
2022/05/31 00:37:26;;;;;;;;;;;;;;;16.20;55.51;99854.69;4411948;32;20326;-93
2022/05/31 00:39:52;;;;;;;;;;;;;;;16.14;55.87;99852.12;4401149;32;19992;-90
2022/05/31 00:42:21;;;;;;;;;;;;;;;15.98;56.56;99858.31;4409228;32;20057;-93
2022/05/31 00:44:49;;;;;;;;;;;;;;;16.01;56.38;99853.94;4401195;32;19975;-92
2022/05/31 00:47:24;;;;;;;;;;;;;;;16.06;56.16;99856.53;4400750;32;19992;-95
2022/05/31 00:49:52;;;;;;;;;;;;;;;16.10;55.93;99858.25;4413897;32;20042;-92
2022/05/31 00:52:29;;;;;;;;;;;;;;;16.07;55.92;99858.25;4419076;32;20006;-93
2022/05/31 00:55:06;;;;;;;;;;;;;;;16.01;55.92;99868.72;4420985;32;20057;-94
2022/05/31 00:57:33;;;;;;;;;;;;;;;16.24;55.22;99861.66;4415793;32;20033;-95
2022/05/31 01:00:03;;;;;;;;;;;;;;;15.76;56.76;99868.88;4400873;32;19991;-94
2022/05/31 01:02:30;;;;;;;;;;;;;;;16.00;56.04;99869.63;4402607;32;20000;-95
2022/05/31 01:04:57;;;;;;;;;;;;;;;15.98;56.27;99868.75;4418797;32;20046;-90
2022/05/31 01:07:24;;;;;;;;;;;;;;;15.78;56.84;99877.56;4411546;32;20097;-93
2022/05/31 01:09:51;;;;;;;;;;;;;;;15.95;56.18;99871.37;4407208;32;20072;-93
2022/05/31 01:12:24;;;;;;;;;;;;;;;15.90;56.19;99873.16;4419274;32;19982;-94
2022/05/31 01:15:01;;;;;;;;;;;;;;;15.71;56.70;99881.06;4421248;32;20008;-94
2022/05/31 01:17:36;;;;;;;;;;;;;;;15.71;56.63;99881.06;4422679;32;20038;-94
2022/05/31 01:20:06;;;;;;;;;;;;;;;15.83;56.32;99879.28;4407269;32;20334;-91
2022/05/31 01:22:38;;;;;;;;;;;;;;;15.85;56.04;99887.97;4404734;32;20287;-91
2022/05/31 01:25:05;;;;;;;;;;;;;;;15.73;56.61;99889.78;4416048;32;20035;-88
2022/05/31 01:27:32;;;;;;;;;;;;;;;15.68;56.81;99891.53;4410684;32;20540;-95
2022/05/31 01:30:01;;;;;;;;;;;;;;;15.74;56.55;99891.50;4402327;32;20334;-90
2022/05/31 01:32:28;;;;;;;;;;;;;;;15.44;57.18;99894.16;4411358;32;19985;-93
2022/05/31 01:35:03;;;;;;;;;;;;;;;15.61;56.61;99889.78;4397173;32;20033;-94
2022/05/31 01:37:56;;;;;;;;;;;;;;;15.59;56.79;99891.53;4405792;32;20062;-94
2022/05/31 01:40:49;;;;;;;;;;;;;;;15.69;56.45;99893.25;4410624;32;20037;-96
2022/05/31 01:43:17;;;;;;;;;;;;;;;15.53;56.37;99896.75;4408215;32;19988;-93
2022/05/31 01:45:46;;;;;;;;;;;;;;;15.67;55.76;99900.22;4415652;32;20002;-95
2022/05/31 01:48:13;;;;;;;;;;;;;;;15.57;55.75;99898.47;4411368;32;19974;-92
2022/05/31 01:50:40;;;;;;;;;;;;;;;15.40;56.51;99908.09;4408263;32;20080;-95
2022/05/31 01:53:07;;;;;;;;;;;;;;;15.43;56.42;99905.50;4415752;32;19978;-96
2022/05/31 01:55:36;;;;;;;;;;;;;;;15.32;56.63;99893.34;4412620;32;19978;-95
2022/05/31 01:58:03;;;;;;;;;;;;;;;15.24;56.77;99902.06;4426762;32;19990;-92
2022/05/31 02:00:29;;;;;;;;;;;;;;;15.23;56.62;99903.78;4426545;32;20319;-93
2022/05/31 02:02:57;;;;;;;;;;;;;;;15.43;55.89;99901.13;4409065;32;19981;-92
2022/05/31 02:05:25;;;;;;;;;;;;;;;15.25;56.25;99906.38;4411294;32;20541;-94
2022/05/31 02:07:56;;;;;;;;;;;;;;;15.35;55.94;99909.00;4399908;32;20461;-95
2022/05/31 02:10:23;;;;;;;;;;;;;;;15.24;56.50;99905.53;4402991;32;20001;-94
2022/05/31 02:12:51;;;;;;;;;;;;;;;15.28;56.18;99907.28;4405781;32;20685;-93
2022/05/31 02:15:19;;;;;;;;;;;;;;;15.21;56.39;99904.66;4412285;32;19982;-93
2022/05/31 02:17:47;;;;;;;;;;;;;;;15.29;56.23;99913.34;4408678;32;20028;-93
2022/05/31 02:20:15;;;;;;;;;;;;;;;15.26;56.41;99911.63;4415557;32;19994;-93
2022/05/31 02:22:42;;;;;;;;;;;;;;;15.26;56.30;99908.16;4411487;32;19977;-92
2022/05/31 02:25:09;;;;;;;;;;;;;;;15.27;56.28;99905.50;4407335;32;20015;-94
2022/05/31 02:27:36;;;;;;;;;;;;;;;15.32;56.11;99903.78;4408313;32;20072;-94
2022/05/31 02:30:04;;;;;;;;;;;;;;;15.35;56.08;99909.00;4402024;32;20832;-93
2022/05/31 02:32:30;;;;;;;;;;;;;;;15.26;56.18;99908.16;4410138;32;20048;-93
2022/05/31 02:34:57;;;;;;;;;;;;;;;15.21;56.33;99913.34;4402223;32;20041;-93
2022/05/31 02:37:24;;;;;;;;;;;;;;;15.23;56.28;99903.78;4401488;32;19994;-93
2022/05/31 02:39:51;;;;;;;;;;;;;;;15.39;55.75;99908.97;4413883;32;19987;-95
2022/05/31 02:42:18;;;;;;;;;;;;;;;15.17;56.28;99914.22;4402484;32;20007;-95
2022/05/31 02:44:45;;;;;;;;;;;;;;;15.08;56.51;99916.84;4416151;32;20079;-95
2022/05/31 02:47:13;;;;;;;;;;;;;;;15.13;56.15;99916.84;4407801;32;20425;-95
2022/05/31 02:49:40;;;;;;;;;;;;;;;15.13;56.08;99924.69;4403638;32;19978;-96
2022/05/31 02:52:07;;;;;;;;;;;;;;;15.00;56.38;99926.44;4424787;32;20300;-94
2022/05/31 02:54:33;;;;;;;;;;;;;;;14.99;56.28;99924.66;4417189;32;19978;-94
2022/05/31 02:57:04;;;;;;;;;;;;;;;14.83;57.09;99923.81;4413445;32;20345;-92
2022/05/31 02:59:33;;;;;;;;;;;;;;;14.85;56.84;99922.94;4408645;32;19979;-93
2022/05/31 03:02:02;;;;;;;;;;;;;;;14.81;56.96;99917.75;4401569;32;20065;-94
2022/05/31 03:04:44;;;;;;;;;;;;;;;15.08;56.20;99919.44;4419442;32;20308;-93
2022/05/31 03:07:12;;;;;;;;;;;;;;;14.91;56.89;99922.09;4408702;32;19979;-94
2022/05/31 03:09:40;;;;;;;;;;;;;;;14.90;57.05;99917.75;4409182;32;20081;-95
2022/05/31 03:12:09;;;;;;;;;;;;;;;14.97;56.88;99919.47;4402489;32;19978;-92
2022/05/31 03:14:39;;;;;;;;;;;;;;;15.08;56.53;99911.63;4413020;32;19978;-94
2022/05/31 03:17:05;;;;;;;;;;;;;;;15.02;56.94;99916.84;4401410;32;20312;-94
2022/05/31 03:19:34;;;;;;;;;;;;;;;14.74;57.64;99919.47;4401730;32;20032;-89
2022/05/31 03:22:02;;;;;;;;;;;;;;;14.95;57.07;99912.53;4416824;32;20358;-94
2022/05/31 03:24:32;;;;;;;;;;;;;;;15.11;56.44;99914.25;4408444;32;20832;-95
2022/05/31 03:27:00;;;;;;;;;;;;;;;15.07;56.69;99907.31;4415336;32;19987;-96
2022/05/31 03:29:26;;;;;;;;;;;;;;;15.05;56.70;99914.25;4410316;32;20072;-96
2022/05/31 03:31:54;;;;;;;;;;;;;;;15.06;56.63;99910.75;4416550;32;20054;-95
2022/05/31 03:34:21;;;;;;;;;;;;;;;15.14;56.66;99913.38;4422100;32;20000;-94
2022/05/31 03:36:49;;;;;;;;;;;;;;;15.14;57.17;99915.97;4414769;32;19996;-96
2022/05/31 03:39:16;;;;;;;;;;;;;;;15.06;57.38;99915.97;4417032;32;19996;-92
2022/05/31 03:41:43;;;;;;;;;;;;;;;15.15;57.20;99910.75;4416817;32;20001;-95
2022/05/31 03:44:10;;;;;;;;;;;;;;;15.04;57.71;99917.72;4413349;32;20326;-95
2022/05/31 03:46:39;;;;;;;;;;;;;;;15.15;57.13;99922.91;4412429;32;19983;-95
2022/05/31 03:49:07;;;;;;;;;;;;;;;15.17;57.13;99923.81;4392236;32;19990;-96
2022/05/31 03:51:34;;;;;;;;;;;;;;;15.13;57.54;99927.28;4428163;32;20039;-96
2022/05/31 03:54:02;;;;;;;;;;;;;;;15.30;57.47;99921.16;4424012;32;19982;-95
2022/05/31 03:56:30;;;;;;;;;;;;;;;15.33;57.59;99925.50;4421783;32;19973;-93
2022/05/31 03:58:57;;;;;;;;;;;;;;;15.14;57.98;99922.06;4427123;32;20306;-92
2022/05/31 04:01:24;;;;;;;;;;;;;;;15.43;57.44;99921.12;4405700;32;20001;-90
2022/05/31 04:03:52;;;;;;;;;;;;;;;15.40;57.50;99931.56;4410532;32;20030;-91
2022/05/31 04:06:20;;;;;;;;;;;;;;;15.41;57.67;99934.19;4409604;32;19989;-93
2022/05/31 04:08:49;;;;;;;;;;;;;;;15.50;57.76;99931.53;4401465;32;20355;-93
2022/05/31 04:11:16;;;;;;;;;;;;;;;15.51;57.78;99940.25;4406371;32;20398;-90
2022/05/31 04:13:43;;;;;;;;;;;;;;;15.58;57.48;99941.97;4391048;32;19997;-90
2022/05/31 04:16:12;;;;;;;;;;;;;;;15.64;57.70;99943.72;4400896;32;19989;-96
2022/05/31 04:18:42;;;;;;;;;;;;;;;15.71;57.64;99938.47;4401675;32;20013;-96
2022/05/31 04:21:11;;;;;;;;;;;;;;;15.85;57.00;99934.94;4391659;32;19990;-90
2022/05/31 04:26:26;;;;;;;;;;;;;;;15.92;57.33;99936.66;4403368;32;19985;-92
2022/05/31 04:28:56;;;;;;;;;;;;;;;16.02;57.28;99934.03;4411453;32;20005;-87
2022/05/31 04:31:26;;;;;;;;;;;;;;;16.01;57.48;99926.19;4395440;32;21155;-87
2022/05/31 04:33:56;;;;;;;;;;;;;;;16.20;56.80;99927.81;4399078;32;19982;-86
2022/05/31 04:36:23;;;;;;;;;;;;;;;16.30;56.65;99925.16;4394992;32;20015;-86
2022/05/31 04:38:51;;;;;;;;;;;;;;;16.45;56.17;99925.94;4413181;32;19978;-85
2022/05/31 04:41:24;;;;;;;;;;;;;;;16.58;55.83;99926.72;4410886;32;20020;-85
2022/05/31 04:43:52;;;;;;;;;;;;;;;16.56;56.01;99920.66;4416319;32;19997;-85
2022/05/31 04:46:21;;;;;;;;;;;;;;;16.58;56.11;99924.09;4399865;32;19978;-86
2022/05/31 04:48:48;;;;;;;;;;;;;;;16.63;56.47;99917.09;4412453;32;20032;-84
2022/05/31 04:51:15;;;;;;;;;;;;;;;16.70;55.93;99926.63;4411662;32;20001;-85
2022/05/31 04:53:43;;;;;;;;;;;;;;;16.87;56.05;99925.66;4412889;32;19990;-82
2022/05/31 04:56:11;;;;;;;;;;;;;;;16.79;56.01;99922.25;4415367;32;19978;-84
2022/05/31 04:58:38;;;;;;;;;;;;;;;16.85;55.99;99928.31;4410455;32;19981;-84
2022/05/31 05:01:06;;;;;;;;;;;;;;;16.85;56.48;99922.22;4400081;32;20401;-84
2022/05/31 05:03:34;;;;;;;;;;;;;;;17.00;56.05;99922.06;4400231;32;20001;-84
2022/05/31 05:06:05;;;;;;;;;;;;;;;17.03;56.36;99922.03;4390630;32;20000;-85
2022/05/31 05:08:33;;;;;;;;;;;;;;;17.03;56.26;99916.81;4406676;32;19999;-84
2022/05/31 05:11:00;;;;;;;;;;;;;;;17.09;56.26;99921.97;4387083;32;19986;-85
2022/05/31 05:13:27;;;;;;;;;;;;;;;16.97;56.55;99927.31;4400595;32;20048;-84
2022/05/31 05:15:56;;;;;;;;;;;;;;;17.18;56.09;99916.66;4405944;32;20007;-84
2022/05/31 05:18:23;;;;;;;;;;;;;;;17.25;56.38;99921.84;4399961;32;19986;-86
2022/05/31 05:20:51;;;;;;;;;;;;;;;17.29;56.52;99928.75;4399142;32;20263;-85
2022/05/31 05:23:19;;;;;;;;;;;;;;;17.31;56.26;99925.25;4407064;32;19986;-85
2022/05/31 05:25:47;;;;;;;;;;;;;;;17.38;56.15;99924.31;4407489;32;19986;-84
2022/05/31 05:31:04;;;;;;;;;;;;;;;17.53;55.44;99933.75;4401547;32;19970;-83
2022/05/31 05:33:33;;;;;;;;;;;;;;;17.52;55.54;99932.03;4405253;32;20401;-83
2022/05/31 05:36:14;;;;;;;;;;;;;;;17.60;55.39;99934.56;4400865;32;19978;-83
2022/05/31 05:38:42;;;;;;;;;;;;;;;17.57;54.56;99935.44;4387396;32;20006;-83
2022/05/31 05:41:14;;;;;;;;;;;;;;;17.75;54.40;99928.28;4402259;32;19989;-83
2022/05/31 05:43:42;;;;;;;;;;;;;;;17.92;54.21;99931.59;4387136;32;20006;-85
2022/05/31 05:46:13;;;;;;;;;;;;;;;17.86;54.92;99936.91;4402146;32;20020;-85
2022/05/31 05:48:42;;;;;;;;;;;;;;;17.73;55.40;99935.28;4410758;32;19978;-86
2022/05/31 05:51:13;;;;;;;;;;;;;;;18.02;54.49;99935.81;4411847;32;20016;-84
2022/05/31 05:53:45;;;;;;;;;;;;;;;18.10;54.46;99930.50;4400391;32;20090;-85
2022/05/31 05:56:31;;;;;;;;;;;;;;;18.26;53.73;99931.16;4398175;32;19978;-84
2022/05/31 05:59:02;;;;;;;;;;;;;;;18.33;53.81;99938.03;4413128;32;20585;-86
2022/05/31 06:01:41;;;;;;;;;;;;;;;18.33;54.44;99938.03;4416775;32;19985;-85
2022/05/31 06:04:39;;;;;;;;;;;;;;;18.24;55.27;99935.53;4404532;32;19997;-85
2022/05/31 06:07:05;;;;;;;;;;;;;;;18.54;54.33;99932.50;4394200;32;20004;-85
2022/05/31 06:09:32;;;;;;;;;;;;;;;18.81;53.78;99940.84;4401695;32;20003;-85
2022/05/31 06:12:01;;;;;;;;;;;;;;;19.05;53.59;99940.44;4401935;32;19978;-86
2022/05/31 06:14:32;;;;;;;;;;;;;;;19.26;53.22;99943.59;4393580;32;19990;-88
2022/05/31 06:17:01;;;;;;;;;;;;;;;19.70;51.39;99928.78;4414186;32;19974;-85
2022/05/31 06:19:32;;;;;;;;;;;;;;;19.79;51.15;99944.38;4414771;32;21304;-86
2022/05/31 06:21:58;;;;;;;;;;;;;;;20.16;49.55;99943.59;4395615;32;19997;-87
2022/05/31 06:24:28;;;;;;;;;;;;;;;20.51;46.79;99949.84;4408012;32;19986;-87
2022/05/31 06:26:56;;;;;;;;;;;;;;;20.85;47.33;99942.91;4387949;32;20000;-85
2022/05/31 06:29:23;;;;;;;;;;;;;;;20.96;46.47;99944.41;4404114;32;19979;-85
2022/05/31 06:31:50;;;;;;;;;;;;;;;21.34;46.19;99939.03;4395643;32;20438;-87
2022/05/31 06:34:18;;;;;;;;;;;;;;;21.68;45.08;99948.69;4411669;32;19986;-85
2022/05/31 06:36:46;;;;;;;;;;;;;;;22.03;44.75;99944.19;4405482;32;20033;-85
2022/05/31 06:39:13;;;;;;;;;;;;;;;21.88;43.48;99960.44;4402638;32;19985;-86
2022/05/31 06:41:41;;;;;;;;;;;;;;;22.26;43.28;99962.84;4409644;32;19985;-84
2022/05/31 06:44:09;;;;;;;;;;;;;;;22.56;42.19;99960.22;4409332;32;19982;-84
2022/05/31 06:46:56;;;;;;;;;;;;;;;22.87;41.75;99953.94;4407727;32;19993;-87
2022/05/31 06:49:24;;;;;;;;;;;;;;;23.21;41.73;99959.88;4402063;32;20500;-87
2022/05/31 06:57:34;;;;;;;;;;;;;;;23.64;40.06;99947.81;4401200;32;19990;-89
2022/05/31 07:00:06;;;;;;;;;;;;;;;23.44;38.90;99955.56;4414822;32;19990;-86
2022/05/31 07:02:34;;;;;;;;;;;;;;;23.30;40.19;99952.56;4415788;32;20001;-84
2022/05/31 07:05:00;;;;;;;;;;;;;;;23.60;39.60;99948.81;4415031;32;20020;-85
2022/05/31 07:07:27;;;;;;;;;;;;;;;23.65;39.33;99949.53;4415622;32;20399;-86
2022/05/31 07:10:03;;;;;;;;;;;;;;;24.00;39.54;99944.75;4412881;32;20008;-84
2022/05/31 07:12:30;;;;;;;;;;;;;;;24.19;38.49;99944.06;4413995;32;20007;-88
2022/05/31 07:15:00;;;;;;;;;;;;;;;23.93;38.20;99947.66;4415905;32;19998;-86
2022/05/31 07:17:30;;;;;;;;;;;;;;;24.11;38.61;99947.84;4415149;32;20450;-82
2022/05/31 07:19:57;;;;;;;;;;;;;;;24.34;37.63;99946.09;4414589;32;20017;-88
2022/05/31 07:22:34;;;;;;;;;;;;;;;24.71;37.31;99942.91;4413425;32;20378;-85
2022/05/31 07:25:04;;;;;;;;;;;;;;;24.62;37.55;99948.56;4414322;32;19982;-86
2022/05/31 07:27:33;;;;;;;;;;;;;;;24.95;37.02;99941.03;4425918;32;20024;-86
2022/05/31 07:30:01;;;;;;;;;;;;;;;24.95;36.66;99951.62;4415674;32;20438;-85
2022/05/31 07:32:28;;;;;;;;;;;;;;;25.11;35.96;99949.22;4400455;32;20002;-87
2022/05/31 07:35:15;;;;;;;;;;;;;;;25.02;38.49;99952.25;4422347;32;21271;-85
2022/05/31 07:37:42;;;;;;;;;;;;;;;25.29;36.32;99955.53;4414749;32;19981;-86
2022/05/31 07:40:09;;;;;;;;;;;;;;;25.41;35.01;99957.66;4415355;32;19978;-84
2022/05/31 07:42:36;;;;;;;;;;;;;;;25.32;36.14;99952.75;4423332;32;19982;-82
2022/05/31 07:45:04;;;;;;;;;;;;;;;25.02;38.52;99958.41;4426776;32;19990;-85
2022/05/31 07:47:31;;;;;;;;;;;;;;;25.13;36.73;99959.75;4426120;32;19982;-86
2022/05/31 07:49:59;;;;;;;;;;;;;;;25.10;36.17;99962.50;4411029;32;20287;-85
2022/05/31 07:52:28;;;;;;;;;;;;;;;25.43;37.67;99958.47;4415623;32;19992;-84
2022/05/31 07:54:59;;;;;;;;;;;;;;;25.64;36.77;99961.09;4404928;32;20430;-84
2022/05/31 08:00:17;;;;;;;;;;;;;;;26.11;34.35;99966.09;4415411;32;20089;-83
2022/05/31 08:02:45;;;;;;;;;;;;;;;25.98;34.54;99965.78;4415392;32;20341;-88
2022/05/31 08:05:13;;;;;;;;;;;;;;;26.40;33.22;99968.25;4415081;32;20042;-84
2022/05/31 08:07:39;;;;;;;;;;;;;;;25.56;35.75;99968.50;4415676;32;19997;-83
2022/05/31 08:10:08;;;;;;;;;;;;;;;25.61;34.93;99958.56;4415564;32;20303;-80
2022/05/31 08:12:35;;;;;;;;;;;;;;;25.91;35.42;99965.22;4414611;32;20312;-85
2022/05/31 08:15:01;;;;;;;;;;;;;;;26.44;34.15;99968.94;4416269;32;20000;-84
2022/05/31 08:17:29;;;;;;;;;;;;;;;26.42;33.31;99974.34;4414686;32;19989;-86
2022/05/31 08:19:56;;;;;;;;;;;;;;;26.76;33.59;99975.41;4413688;32;19982;-84
2022/05/31 08:22:23;;;;;;;;;;;;;;;25.58;33.48;99971.97;4411128;32;19978;-83
2022/05/31 08:24:49;;;;;;;;;;;;;;;24.95;35.11;99972.81;4406337;32;19978;-85
2022/05/31 08:27:16;;;;;;;;;;;;;;;25.48;36.34;99969.72;4409190;32;20020;-83
2022/05/31 08:29:43;;;;;;;;;;;;;;;25.16;37.20;99970.22;4400837;32;19996;-84
2022/05/31 08:32:10;;;;;;;;;;;;;;;25.62;35.92;99978.84;4397118;32;20005;-83
2022/05/31 08:34:37;;;;;;;;;;;;;;;25.48;37.10;99985.63;4402809;32;20341;-83
2022/05/31 08:37:04;;;;;;;;;;;;;;;24.50;37.46;99975.50;4407593;32;19993;-83
2022/05/31 08:39:31;;;;;;;;;;;;;;;25.08;35.67;99974.94;4401171;32;20068;-83
2022/05/31 08:42:04;;;;;;;;;;;;;;;25.32;37.15;99981.91;4392036;32;20324;-82
2022/05/31 08:44:33;;;;;;;;;;;;;;;25.32;36.43;99976.59;4386938;32;20107;-82
2022/05/31 08:47:19;;;;;;;;;;;;;;;25.54;35.72;99986.28;4395414;32;19988;-82
2022/05/31 08:52:57;;;;;;;;;;;;;;;25.15;36.00;99981.75;4399802;32;20023;-84
2022/05/31 08:58:16;;;;;;;;;;;;;;;24.95;37.47;99978.13;4399587;32;19982;-83
2022/05/31 09:00:44;;;;;;;;;;;;;;;24.66;39.85;99981.06;4412589;32;20324;-86
2022/05/31 09:03:11;;;;;;;;;;;;;;;24.34;38.09;99975.19;4391183;32;19994;-84
2022/05/31 09:05:43;;;;;;;;;;;;;;;24.32;39.46;99971.78;4386982;32;20037;-83
2022/05/31 09:08:18;;;;;;;;;;;;;;;24.18;38.21;99971.41;4402625;32;20051;-84
2022/05/31 09:10:50;;;;;;;;;;;;;;;23.96;40.21;99974.84;4394187;32;20001;-84
2022/05/31 09:13:17;;;;;;;;;;;;;;;23.90;40.02;99975.12;4388942;32;20353;-84
2022/05/31 09:15:49;;;;;;;;;;;;;;;23.76;40.69;99966.81;4400557;32;20362;-85
2022/05/31 09:18:39;;;;;;;;;;;;;;;23.11;39.78;99969.00;4385496;32;20016;-83
2022/05/31 09:21:16;;;;;;;;;;;;;;;22.77;42.00;99973.62;4401779;32;19986;-83
2022/05/31 09:23:45;;;;;;;;;;;;;;;23.26;41.28;99966.75;4408232;32;20374;-84
2022/05/31 09:26:35;;;;;;;;;;;;;;;23.46;39.73;99969.59;4405018;32;20710;-85
2022/05/31 09:29:06;;;;;;;;;;;;;;;22.94;40.24;99968.69;4373583;32;19988;-84
2022/05/31 09:31:48;;;;;;;;;;;;;;;23.23;41.97;99966.84;4400026;32;19992;-84
2022/05/31 09:34:34;;;;;;;;;;;;;;;23.51;42.72;99966.78;4404683;32;19996;-84
2022/05/31 09:37:02;;;;;;;;;;;;;;;23.44;41.39;99967.00;4382843;32;19986;-83
2022/05/31 09:39:34;;;;;;;;;;;;;;;23.42;42.05;99968.84;4405927;32;20028;-84
2022/05/31 09:42:02;;;;;;;;;;;;;;;22.82;42.73;99969.09;4408147;32;19978;-80
2022/05/31 09:44:32;;;;;;;;;;;;;;;23.12;42.66;99965.44;4417142;32;20341;-84
2022/05/31 09:47:04;;;;;;;;;;;;;;;22.53;44.07;99976.13;4414083;32;19973;-81
2022/05/31 09:49:37;;;;;;;;;;;;;;;22.65;41.45;99969.59;4404427;32;20008;-82
2022/05/31 09:52:08;;;;;;;;;;;;;;;23.04;41.96;99966.59;4422777;32;19986;-82
2022/05/31 09:57:40;;;;;;;;;;;;;;;22.40;43.15;99964.22;4422795;32;20003;-81
2022/05/31 10:00:15;;;;;;;;;;;;;;;22.84;42.54;99961.97;4416149;32;19977;-81
2022/05/31 10:02:45;;;;;;;;;;;;;;;23.25;40.87;99965.03;4396987;32;19978;-82
2022/05/31 10:05:18;;;;;;;;;;;;;;;23.02;42.08;99960.53;4402144;32;20049;-83
2022/05/31 10:07:46;;;;;;;;;;;;;;;22.82;41.74;99961.16;4406995;32;20723;-82
2022/05/31 10:10:15;;;;;;;;;;;;;;;23.23;41.92;99951.00;4414992;32;20694;-84
2022/05/31 10:12:56;;;;;;;;;;;;;;;23.16;41.82;99950.34;4419640;32;19989;-80
2022/05/31 10:15:30;;;;;;;;;;;;;;;23.24;41.01;99953.63;4415384;32;19977;-81
2022/05/31 10:18:01;;;;;;;;;;;;;;;23.28;41.63;99949.09;4429509;32;19985;-82
2022/05/31 10:20:29;;;;;;;;;;;;;;;23.39;42.27;99946.94;4441192;32;19981;-83
2022/05/31 10:23:00;;;;;;;;;;;;;;;23.47;41.20;99944.88;4422638;32;20067;-83
2022/05/31 10:25:47;;;;;;;;;;;;;;;23.82;40.96;99940.16;4416592;32;19981;-81
2022/05/31 10:28:22;;;;;;;;;;;;;;;24.22;40.98;99938.63;4400882;32;19990;-81
2022/05/31 10:30:51;;;;;;;;;;;;;;;24.00;39.67;99944.75;4406080;32;19992;-83
2022/05/31 10:33:22;;;;;;;;;;;;;;;24.14;40.89;99939.78;4403549;32;19977;-84
2022/05/31 10:36:03;;;;;;;;;;;;;;;24.14;38.96;99937.16;4414699;32;20000;-83
2022/05/31 10:38:30;;;;;;;;;;;;;;;24.04;40.70;99946.34;4414767;32;19990;-83
2022/05/31 10:41:00;;;;;;;;;;;;;;;23.76;40.28;99945.66;4414962;32;19974;-84
2022/05/31 10:43:46;;;;;;;;;;;;;;;23.60;40.59;99940.87;4388566;32;20084;-83
2022/05/31 10:46:26;;;;;;;;;;;;;;;23.91;39.52;99937.16;4406955;32;20039;-84
2022/05/31 10:48:54;;;;;;;;;;;;;;;24.13;39.56;99935.44;4426383;32;19996;-83
2022/05/31 10:51:28;;;;;;;;;;;;;;;24.28;41.01;99933.09;4432509;32;20023;-83
2022/05/31 10:53:54;;;;;;;;;;;;;;;24.50;40.00;99943.75;4430154;32;19993;-84
2022/05/31 10:56:44;;;;;;;;;;;;;;;24.36;41.80;99949.56;4423863;32;20040;-82
2022/05/31 10:59:16;;;;;;;;;;;;;;;23.97;40.94;99944.88;4391605;32;20421;-83
2022/05/31 11:02:09;;;;;;;;;;;;;;;24.58;39.70;99942.53;4403404;32;19970;-84
2022/05/31 11:04:57;;;;;;;;;;;;;;;24.88;37.90;99934.25;4400309;32;19982;-83
2022/05/31 11:07:33;;;;;;;;;;;;;;;25.36;38.71;99934.94;4402953;32;19990;-84
2022/05/31 11:13:01;;;;;;;;;;;;;;;25.78;36.58;99929.50;4401338;32;20057;-83
2022/05/31 11:15:52;;;;;;;;;;;;;;;25.58;36.44;99924.25;4426445;32;20003;-82
2022/05/31 11:18:28;;;;;;;;;;;;;;;25.90;37.88;99926.34;4410044;32;20038;-82
2022/05/31 11:21:01;;;;;;;;;;;;;;;26.36;35.77;99921.53;4424095;32;19986;-83
2022/05/31 11:24:04;;;;;;;;;;;;;;;26.18;37.15;99930.38;4435724;32;19985;-83
2022/05/31 11:26:50;;;;;;;;;;;;;;;26.00;36.18;99921.47;4380857;32;20693;-83
2022/05/31 11:29:38;;;;;;;;;;;;;;;25.62;37.59;99917.87;4415805;32;19997;-86
2022/05/31 11:32:13;;;;;;;;;;;;;;;25.65;38.55;99915.09;4410993;32;19998;-84
2022/05/31 11:34:40;;;;;;;;;;;;;;;25.87;38.87;99905.25;4408348;32;19974;-87
2022/05/31 11:37:24;;;;;;;;;;;;;;;26.08;36.10;99918.47;4411609;32;19990;-88
2022/05/31 11:40:09;;;;;;;;;;;;;;;26.07;37.61;99912.31;4399610;32;20017;-89
2022/05/31 11:43:03;;;;;;;;;;;;;;;25.90;37.77;99907.75;4403760;32;19981;-87
2022/05/31 11:45:43;;;;;;;;;;;;;;;25.67;37.53;99903.47;4379946;32;19986;-88
2022/05/31 11:48:10;;;;;;;;;;;;;;;25.77;35.66;99906.59;4415283;32;19986;-88
2022/05/31 11:50:56;;;;;;;;;;;;;;;26.59;35.61;99909.00;4407171;32;19987;-88
2022/05/31 11:53:41;;;;;;;;;;;;;;;26.24;36.04;99903.53;4404511;32;19982;-89
2022/05/31 11:56:22;;;;;;;;;;;;;;;26.62;34.04;99892.91;4405949;32;20761;-87
2022/05/31 11:58:57;;;;;;;;;;;;;;;26.26;33.39;99891.06;4401615;32;19974;-88
2022/05/31 12:01:50;;;;;;;;;;;;;;;25.83;35.32;99898.38;4369217;32;9999724;-88
2022/05/31 12:04:25;;;;;;;;;;;;;;;25.90;35.41;99897.16;4379524;32;20080;-89
2022/05/31 12:07:04;;;;;;;;;;;;;;;26.23;35.18;99896.53;4373891;32;20008;-88
2022/05/31 12:09:43;;;;;;;;;;;;;;;26.64;35.06;99885.69;4387307;32;19994;-88
2022/05/31 12:12:17;;;;;;;;;;;;;;;26.84;34.31;99882.94;4399959;32;20004;-89
2022/05/31 12:14:49;;;;;;;;;;;;;;;26.65;34.34;99882.13;4389146;32;19967;-87
2022/05/31 12:17:17;;;;;;;;;;;;;;;26.01;35.07;99874.59;4387397;32;20049;-87
2022/05/31 12:19:51;;;;;;;;;;;;;;;26.36;34.23;99864.94;4387006;32;20324;-86
2022/05/31 12:22:28;;;;;;;;;;;;;;;26.63;34.29;99868.06;4390147;32;19983;-85
2022/05/31 12:25:00;;;;;;;;;;;;;;;26.35;35.36;99864.06;4392461;32;20002;-86
2022/05/31 12:27:37;;;;;;;;;;;;;;;26.58;34.45;99859.44;4376147;32;20081;-87
2022/05/31 12:30:20;;;;;;;;;;;;;;;26.87;34.80;99850.91;4384430;32;19986;-86
2022/05/31 12:32:49;;;;;;;;;;;;;;;27.04;32.58;99847.38;4372293;32;19986;-86
2022/05/31 12:35:36;;;;;;;;;;;;;;;26.09;34.25;99853.84;4379132;32;20029;-85
2022/05/31 12:38:03;;;;;;;;;;;;;;;26.63;33.79;99847.66;4381787;32;19987;-85
2022/05/31 12:40:33;;;;;;;;;;;;;;;26.42;33.62;99848.72;4391352;32;20002;-85
2022/05/31 12:43:00;;;;;;;;;;;;;;;26.71;32.66;99844.66;3785093;32;10001287;-86
2022/05/31 12:45:33;;;;;;;;;;;;;;;26.11;34.24;99844.03;4407398;32;20017;-88
2022/05/31 12:48:01;;;;;;;;;;;;;;;26.62;33.73;99834.50;4415910;32;19978;-90
2022/05/31 12:50:45;;;;;;;;;;;;;;;26.42;33.86;99838.97;4413784;32;19998;-88
2022/05/31 12:53:22;;;;;;;;;;;;;;;26.22;35.00;99839.06;4413510;32;19981;-88
2022/05/31 12:55:48;;;;;;;;;;;;;;;25.84;35.29;99836.44;4415206;32;19978;-87
2022/05/31 12:58:33;;;;;;;;;;;;;;;26.11;33.80;99836.09;4411616;32;20000;-89
2022/05/31 13:01:13;;;;;;;;;;;;;;;26.18;34.01;99840.16;4413344;32;20327;-89
2022/05/31 13:03:43;;;;;;;;;;;;;;;25.88;34.61;99843.34;4414267;32;19993;-90
2022/05/31 13:06:11;;;;;;;;;;;;;;;26.13;34.84;99831.53;4413986;32;19989;-86
2022/05/31 13:08:56;;;;;;;;;;;;;;;26.22;34.37;99831.09;4415065;32;20026;-87
2022/05/31 13:20:00;;;;;;;;;;;;;;;25.84;36.46;99824.97;4411827;32;19995;-88
2022/05/31 13:22:30;;;;;;;;;;;;;;;25.62;34.60;99817.13;4399116;32;20791;-90
2022/05/31 13:25:02;;;;;;;;;;;;;;;26.02;34.22;99807.34;4408342;32;20403;-89
2022/05/31 13:27:30;;;;;;;;;;;;;;;26.12;35.63;99811.25;4398577;32;19985;-89
2022/05/31 13:30:01;;;;;;;;;;;;;;;25.93;34.18;99806.84;4430469;32;19998;-88
2022/05/31 13:32:32;;;;;;;;;;;;;;;25.52;35.76;99801.66;4441854;32;20000;-89
2022/05/31 13:35:04;;;;;;;;;;;;;;;26.14;35.03;99796.13;4429988;32;19985;-87
2022/05/31 13:37:31;;;;;;;;;;;;;;;25.59;35.26;99788.09;4409280;32;20927;-91
2022/05/31 13:39:57;;;;;;;;;;;;;;;26.10;34.71;99800.75;4415266;32;20008;-89